sensor_id;sensor_type;location;lat;lon;timestamp;P1;P4;P2;P0;N10;N4;N25;N1;N05;TS
56513;SPS30;62152;52.078;8.414;2023-02-01T00:03:24;nan;nan;nan;nan;nan;nan;nan;nan;nan;nan
56513;SPS30;62152;52.078;8.414;2023-02-01T00:07:27;nan;nan;nan;nan;nan;nan;nan;nan;nan;nan
56513;SPS30;62152;52.078;8.414;2023-02-01T00:11:27;nan;nan;nan;nan;nan;nan;nan;nan;nan;nan
56513;SPS30;62152;52.078;8.414;2023-02-01T00:15:28;nan;nan;nan;nan;nan;nan;nan;nan;nan;nan
56513;SPS30;62152;52.078;8.414;2023-02-01T00:19:29;nan;nan;nan;nan;nan;nan;nan;nan;nan;nan
56513;SPS30;62152;52.078;8.414;2023-02-01T00:23:32;nan;nan;nan;nan;nan;nan;nan;nan;nan;nan
56513;SPS30;62152;52.078;8.414;2023-02-01T00:27:34;nan;nan;nan;nan;nan;nan;nan;nan;nan;nan
56513;SPS30;62152;52.078;8.414;2023-02-01T00:31:34;nan;nan;nan;nan;nan;nan;nan;nan;nan;nan
56513;SPS30;62152;52.078;8.414;2023-02-01T00:35:35;nan;nan;nan;nan;nan;nan;nan;nan;nan;nan
56513;SPS30;62152;52.078;8.414;2023-02-01T00:39:37;nan;nan;nan;nan;nan;nan;nan;nan;nan;nan
56513;SPS30;62152;52.078;8.414;2023-02-01T00:43:39;nan;nan;nan;nan;nan;nan;nan;nan;nan;nan
56513;SPS30;62152;52.078;8.414;2023-02-01T00:47:40;nan;nan;nan;nan;nan;nan;nan;nan;nan;nan
56513;SPS30;62152;52.078;8.414;2023-02-01T00:51:41;nan;nan;nan;nan;nan;nan;nan;nan;nan;nan
56513;SPS30;62152;52.078;8.414;2023-02-01T00:55:45;nan;nan;nan;nan;nan;nan;nan;nan;nan;nan
56513;SPS30;62152;52.078;8.414;2023-02-01T00:59:46;nan;nan;nan;nan;nan;nan;nan;nan;nan;nan
56513;SPS30;62152;52.078;8.414;2023-02-01T01:03:47;nan;nan;nan;nan;nan;nan;nan;nan;nan;nan
56513;SPS30;62152;52.078;8.414;2023-02-01T01:07:49;nan;nan;nan;nan;nan;nan;nan;nan;nan;nan
56513;SPS30;62152;52.078;8.414;2023-02-01T01:11:51;nan;nan;nan;nan;nan;nan;nan;nan;nan;nan
56513;SPS30;62152;52.078;8.414;2023-02-01T01:15:52;nan;nan;nan;nan;nan;nan;nan;nan;nan;nan
56513;SPS30;62152;52.078;8.414;2023-02-01T01:19:53;nan;nan;nan;nan;nan;nan;nan;nan;nan;nan
56513;SPS30;62152;52.078;8.414;2023-02-01T01:23:54;nan;nan;nan;nan;nan;nan;nan;nan;nan;nan
56513;SPS30;62152;52.078;8.414;2023-02-01T01:27:56;nan;nan;nan;nan;nan;nan;nan;nan;nan;nan
56513;SPS30;62152;52.078;8.414;2023-02-01T01:31:57;nan;nan;nan;nan;nan;nan;nan;nan;nan;nan
56513;SPS30;62152;52.078;8.414;2023-02-01T01:35:58;nan;nan;nan;nan;nan;nan;nan;nan;nan;nan
56513;SPS30;62152;52.078;8.414;2023-02-01T01:39:59;nan;nan;nan;nan;nan;nan;nan;nan;nan;nan
56513;SPS30;62152;52.078;8.414;2023-02-01T01:44:02;nan;nan;nan;nan;nan;nan;nan;nan;nan;nan
56513;SPS30;62152;52.078;8.414;2023-02-01T01:48:05;nan;nan;nan;nan;nan;nan;nan;nan;nan;nan
56513;SPS30;62152;52.078;8.414;2023-02-01T01:52:12;nan;nan;nan;nan;nan;nan;nan;nan;nan;nan
56513;SPS30;62152;52.078;8.414;2023-02-01T01:56:14;nan;nan;nan;nan;nan;nan;nan;nan;nan;nan
56513;SPS30;62152;52.078;8.414;2023-02-01T02:00:18;nan;nan;nan;nan;nan;nan;nan;nan;nan;nan
56513;SPS30;62152;52.078;8.414;2023-02-01T02:04:21;nan;nan;nan;nan;nan;nan;nan;nan;nan;nan
56513;SPS30;62152;52.078;8.414;2023-02-01T02:08:24;nan;nan;nan;nan;nan;nan;nan;nan;nan;nan
56513;SPS30;62152;52.078;8.414;2023-02-01T02:12:27;nan;nan;nan;nan;nan;nan;nan;nan;nan;nan
56513;SPS30;62152;52.078;8.414;2023-02-01T02:16:35;nan;nan;nan;nan;nan;nan;nan;nan;nan;nan
56513;SPS30;62152;52.078;8.414;2023-02-01T02:21:02;nan;nan;nan;nan;nan;nan;nan;nan;nan;nan
56513;SPS30;62152;52.078;8.414;2023-02-01T02:25:29;nan;nan;nan;nan;nan;nan;nan;nan;nan;nan
56513;SPS30;62152;52.078;8.414;2023-02-01T02:30:21;nan;nan;nan;nan;nan;nan;nan;nan;nan;nan
56513;SPS30;62152;52.078;8.414;2023-02-01T02:34:45;nan;nan;nan;nan;nan;nan;nan;nan;nan;nan
56513;SPS30;62152;52.078;8.414;2023-02-01T02:38:54;nan;nan;nan;nan;nan;nan;nan;nan;nan;nan
56513;SPS30;62152;52.078;8.414;2023-02-01T02:43:06;nan;nan;nan;nan;nan;nan;nan;nan;nan;nan
56513;SPS30;62152;52.078;8.414;2023-02-01T02:47:17;nan;nan;nan;nan;nan;nan;nan;nan;nan;nan
56513;SPS30;62152;52.078;8.414;2023-02-01T02:51:28;nan;nan;nan;nan;nan;nan;nan;nan;nan;nan
56513;SPS30;62152;52.078;8.414;2023-02-01T02:55:35;nan;nan;nan;nan;nan;nan;nan;nan;nan;nan
56513;SPS30;62152;52.078;8.414;2023-02-01T02:59:39;nan;nan;nan;nan;nan;nan;nan;nan;nan;nan
56513;SPS30;62152;52.078;8.414;2023-02-01T03:03:44;nan;nan;nan;nan;nan;nan;nan;nan;nan;nan
56513;SPS30;62152;52.078;8.414;2023-02-01T03:07:55;nan;nan;nan;nan;nan;nan;nan;nan;nan;nan
56513;SPS30;62152;52.078;8.414;2023-02-01T03:12:03;nan;nan;nan;nan;nan;nan;nan;nan;nan;nan
56513;SPS30;62152;52.078;8.414;2023-02-01T03:16:12;nan;nan;nan;nan;nan;nan;nan;nan;nan;nan
56513;SPS30;62152;52.078;8.414;2023-02-01T03:20:21;nan;nan;nan;nan;nan;nan;nan;nan;nan;nan
56513;SPS30;62152;52.078;8.414;2023-02-01T03:24:27;nan;nan;nan;nan;nan;nan;nan;nan;nan;nan
56513;SPS30;62152;52.078;8.414;2023-02-01T03:28:35;nan;nan;nan;nan;nan;nan;nan;nan;nan;nan
56513;SPS30;62152;52.078;8.414;2023-02-01T03:32:43;nan;nan;nan;nan;nan;nan;nan;nan;nan;nan
56513;SPS30;62152;52.078;8.414;2023-02-01T03:36:49;nan;nan;nan;nan;nan;nan;nan;nan;nan;nan
56513;SPS30;62152;52.078;8.414;2023-02-01T03:41:00;nan;nan;nan;nan;nan;nan;nan;nan;nan;nan
56513;SPS30;62152;52.078;8.414;2023-02-01T03:45:10;nan;nan;nan;nan;nan;nan;nan;nan;nan;nan
56513;SPS30;62152;52.078;8.414;2023-02-01T03:49:16;nan;nan;nan;nan;nan;nan;nan;nan;nan;nan
56513;SPS30;62152;52.078;8.414;2023-02-01T03:53:29;nan;nan;nan;nan;nan;nan;nan;nan;nan;nan
56513;SPS30;62152;52.078;8.414;2023-02-01T03:57:34;nan;nan;nan;nan;nan;nan;nan;nan;nan;nan
56513;SPS30;62152;52.078;8.414;2023-02-01T04:01:41;nan;nan;nan;nan;nan;nan;nan;nan;nan;nan
56513;SPS30;62152;52.078;8.414;2023-02-01T04:05:43;nan;nan;nan;nan;nan;nan;nan;nan;nan;nan
56513;SPS30;62152;52.078;8.414;2023-02-01T04:09:44;nan;nan;nan;nan;nan;nan;nan;nan;nan;nan
56513;SPS30;62152;52.078;8.414;2023-02-01T04:13:46;nan;nan;nan;nan;nan;nan;nan;nan;nan;nan
56513;SPS30;62152;52.078;8.414;2023-02-01T04:17:47;nan;nan;nan;nan;nan;nan;nan;nan;nan;nan
56513;SPS30;62152;52.078;8.414;2023-02-01T04:21:48;nan;nan;nan;nan;nan;nan;nan;nan;nan;nan
56513;SPS30;62152;52.078;8.414;2023-02-01T04:25:48;nan;nan;nan;nan;nan;nan;nan;nan;nan;nan
56513;SPS30;62152;52.078;8.414;2023-02-01T04:29:50;nan;nan;nan;nan;nan;nan;nan;nan;nan;nan
56513;SPS30;62152;52.078;8.414;2023-02-01T04:33:51;nan;nan;nan;nan;nan;nan;nan;nan;nan;nan
56513;SPS30;62152;52.078;8.414;2023-02-01T04:37:52;nan;nan;nan;nan;nan;nan;nan;nan;nan;nan
56513;SPS30;62152;52.078;8.414;2023-02-01T04:41:53;nan;nan;nan;nan;nan;nan;nan;nan;nan;nan
56513;SPS30;62152;52.078;8.414;2023-02-01T04:45:55;nan;nan;nan;nan;nan;nan;nan;nan;nan;nan
56513;SPS30;62152;52.078;8.414;2023-02-01T04:49:55;nan;nan;nan;nan;nan;nan;nan;nan;nan;nan
56513;SPS30;62152;52.078;8.414;2023-02-01T04:53:56;nan;nan;nan;nan;nan;nan;nan;nan;nan;nan
56513;SPS30;62152;52.078;8.414;2023-02-01T04:57:57;nan;nan;nan;nan;nan;nan;nan;nan;nan;nan
56513;SPS30;62152;52.078;8.414;2023-02-01T05:01:59;nan;nan;nan;nan;nan;nan;nan;nan;nan;nan
56513;SPS30;62152;52.078;8.414;2023-02-01T05:06:00;nan;nan;nan;nan;nan;nan;nan;nan;nan;nan
56513;SPS30;62152;52.078;8.414;2023-02-01T05:10:00;nan;nan;nan;nan;nan;nan;nan;nan;nan;nan
56513;SPS30;62152;52.078;8.414;2023-02-01T05:14:01;nan;nan;nan;nan;nan;nan;nan;nan;nan;nan
56513;SPS30;62152;52.078;8.414;2023-02-01T05:18:03;nan;nan;nan;nan;nan;nan;nan;nan;nan;nan
56513;SPS30;62152;52.078;8.414;2023-02-01T05:22:59;5.86;5.25;4.03;2.38;19.26;19.20;18.91;17.28;12.66;0.92
56513;SPS30;62152;52.078;8.414;2023-02-01T05:26:59;5.27;4.77;3.77;2.40;19.39;19.34;19.10;17.76;13.45;0.88
56513;SPS30;62152;52.078;8.414;2023-02-01T05:31:00;4.77;4.37;3.56;2.42;19.51;19.47;19.28;18.18;14.13;0.82
56513;SPS30;62152;52.078;8.414;2023-02-01T05:35:01;4.12;3.80;3.15;2.23;17.91;17.88;17.73;16.84;13.27;0.82
56513;SPS30;62152;52.078;8.414;2023-02-01T05:39:03;3.98;3.70;3.17;2.37;19.00;18.98;18.85;18.09;14.52;0.79
56513;SPS30;62152;52.078;8.414;2023-02-01T05:43:04;3.86;3.61;3.11;2.36;18.94;18.91;18.80;18.09;14.58;0.79
56513;SPS30;62152;52.078;8.414;2023-02-01T05:47:05;3.91;3.62;3.05;2.22;17.85;17.82;17.68;16.89;13.44;0.82
56513;SPS30;62152;52.078;8.414;2023-02-01T05:51:06;4.05;3.76;3.18;2.33;18.74;18.71;18.58;17.77;14.18;0.80
56513;SPS30;62152;52.078;8.414;2023-02-01T05:55:11;3.78;3.50;2.95;2.15;17.28;17.25;17.12;16.35;13.01;0.80
56513;SPS30;62152;52.078;8.414;2023-02-01T05:59:12;3.66;3.42;2.92;2.19;17.60;17.58;17.46;16.77;13.47;0.77
56513;SPS30;62152;52.078;8.414;2023-02-01T06:03:13;3.36;3.16;2.77;2.17;17.40;17.38;17.29;16.73;13.61;0.75
56513;SPS30;62152;52.078;8.414;2023-02-01T06:07:14;3.06;2.90;2.57;2.05;16.46;16.44;16.36;15.89;13.00;0.75
56513;SPS30;62152;52.078;8.414;2023-02-01T06:11:16;2.85;2.70;2.41;1.94;15.53;15.51;15.44;15.02;12.32;0.73
56513;SPS30;62152;52.078;8.414;2023-02-01T06:15:17;2.79;2.66;2.39;1.95;15.62;15.61;15.54;15.15;12.47;0.70
56513;SPS30;62152;52.078;8.414;2023-02-01T06:19:17;2.86;2.69;2.37;1.87;15.00;14.98;14.91;14.45;11.78;0.74
56513;SPS30;62152;52.078;8.414;2023-02-01T06:23:18;3.08;2.89;2.50;1.92;15.38;15.35;15.26;14.72;11.90;0.76
56513;SPS30;62152;52.078;8.414;2023-02-01T06:27:20;3.41;3.20;2.78;2.14;17.15;17.13;17.03;16.43;13.30;0.75
56513;SPS30;62152;52.078;8.414;2023-02-01T06:31:21;2.66;2.52;2.24;1.79;14.37;14.35;14.29;13.88;11.37;0.72
56513;SPS30;62152;52.078;8.414;2023-02-01T06:35:22;2.52;2.40;2.17;1.78;14.26;14.25;14.19;13.84;11.41;0.71
56513;SPS30;62152;52.078;8.414;2023-02-01T06:39:23;2.71;2.58;2.32;1.89;15.11;15.10;15.03;14.65;12.05;0.73
56513;SPS30;62152;52.078;8.414;2023-02-01T06:43:26;2.77;2.62;2.32;1.85;14.87;14.85;14.78;14.35;11.74;0.73
56513;SPS30;62152;52.078;8.414;2023-02-01T06:47:27;2.82;2.65;2.32;1.81;14.48;14.46;14.38;13.91;11.30;0.76
56513;SPS30;62152;52.078;8.414;2023-02-01T06:51:28;2.64;2.49;2.20;1.74;13.97;13.96;13.88;13.47;10.99;0.74
56513;SPS30;62152;52.078;8.414;2023-02-01T06:55:29;2.48;2.35;2.11;1.71;13.67;13.66;13.60;13.24;10.87;0.74
56513;SPS30;62152;52.078;8.414;2023-02-01T06:59:31;2.51;2.39;2.14;1.74;13.93;13.92;13.86;13.49;11.10;0.73
56513;SPS30;62152;52.078;8.414;2023-02-01T07:03:32;2.42;2.31;2.09;1.72;13.77;13.75;13.70;13.37;11.04;0.72
56513;SPS30;62152;52.078;8.414;2023-02-01T07:07:33;2.56;2.43;2.17;1.76;14.09;14.07;14.01;13.64;11.20;0.73
56513;SPS30;62152;52.078;8.414;2023-02-01T07:11:34;2.46;2.34;2.09;1.68;13.49;13.48;13.42;13.05;10.71;0.71
56513;SPS30;62152;52.078;8.414;2023-02-01T07:15:36;2.62;2.48;2.20;1.75;14.03;14.02;13.95;13.54;11.08;0.73
56513;SPS30;62152;52.078;8.414;2023-02-01T07:19:37;2.62;2.48;2.20;1.76;14.08;14.07;14.00;13.60;11.13;0.73
56513;SPS30;62152;52.078;8.414;2023-02-01T07:23:38;2.52;2.39;2.13;1.72;13.79;13.77;13.71;13.34;10.95;0.73
56513;SPS30;62152;52.078;8.414;2023-02-01T07:27:39;2.26;2.17;1.98;1.66;13.27;13.26;13.21;12.93;10.72;0.70
56513;SPS30;62152;52.078;8.414;2023-02-01T07:31:41;2.27;2.17;1.98;1.64;13.12;13.11;13.06;12.76;10.55;0.71
56513;SPS30;62152;52.078;8.414;2023-02-01T07:35:42;2.14;2.07;1.92;1.65;13.20;13.19;13.16;12.93;10.79;0.70
56513;SPS30;62152;52.078;8.414;2023-02-01T07:39:43;2.06;1.98;1.84;1.57;12.54;12.53;12.49;12.26;10.22;0.72
56513;SPS30;62152;52.078;8.414;2023-02-01T07:43:44;2.19;2.09;1.89;1.57;12.55;12.54;12.49;12.20;10.08;0.73
56513;SPS30;62152;52.078;8.414;2023-02-01T07:47:46;2.10;2.01;1.82;1.51;12.05;12.04;12.00;11.72;9.68;0.72
56513;SPS30;62152;52.078;8.414;2023-02-01T07:51:47;2.25;2.15;1.96;1.63;13.03;13.01;12.97;12.67;10.48;0.72
56513;SPS30;62152;52.078;8.414;2023-02-01T07:55:47;1.98;1.91;1.77;1.51;12.07;12.06;12.03;11.81;9.84;0.69
56513;SPS30;62152;52.078;8.414;2023-02-01T07:59:48;2.01;1.94;1.80;1.54;12.34;12.33;12.30;12.08;10.07;0.69
56513;SPS30;62152;52.078;8.414;2023-02-01T08:03:51;1.88;1.82;1.69;1.45;11.62;11.61;11.58;11.38;9.49;0.68
56513;SPS30;62152;52.078;8.414;2023-02-01T08:07:54;1.95;1.89;1.76;1.52;12.17;12.17;12.14;11.93;9.97;0.67
56513;SPS30;62152;52.078;8.414;2023-02-01T08:11:55;2.20;2.13;2.00;1.75;13.96;13.95;13.92;13.70;11.47;0.67
56513;SPS30;62152;52.078;8.414;2023-02-01T08:15:57;2.08;2.02;1.91;1.67;13.34;13.33;13.30;13.11;10.99;0.67
56513;SPS30;62152;52.078;8.414;2023-02-01T08:20:00;1.98;1.92;1.82;1.59;12.73;12.72;12.70;12.51;10.49;0.65
56513;SPS30;62152;52.078;8.414;2023-02-01T08:24:02;1.71;1.67;1.60;1.43;11.39;11.39;11.37;11.23;9.46;0.63
56513;SPS30;62152;52.078;8.414;2023-02-01T08:28:08;1.62;1.59;1.54;1.39;11.10;11.09;11.08;10.97;9.26;0.63
56513;SPS30;62152;52.078;8.414;2023-02-01T08:32:09;1.80;1.76;1.69;1.51;12.10;12.09;12.07;11.94;10.07;0.63
56513;SPS30;62152;52.078;8.414;2023-02-01T08:36:12;1.87;1.82;1.72;1.52;12.13;12.12;12.09;11.93;10.01;0.66
56513;SPS30;62152;52.078;8.414;2023-02-01T08:40:13;1.74;1.68;1.58;1.38;11.04;11.03;11.01;10.84;9.08;0.67
56513;SPS30;62152;52.078;8.414;2023-02-01T08:44:14;1.80;1.75;1.66;1.45;11.63;11.63;11.60;11.44;9.60;0.66
56513;SPS30;62152;52.078;8.414;2023-02-01T08:48:14;1.72;1.68;1.60;1.42;11.37;11.36;11.34;11.20;9.42;0.66
56513;SPS30;62152;52.078;8.414;2023-02-01T08:52:17;1.63;1.59;1.51;1.34;10.70;10.70;10.68;10.54;8.86;0.66
56513;SPS30;62152;52.078;8.414;2023-02-01T08:56:18;1.61;1.57;1.50;1.33;10.67;10.66;10.64;10.51;8.85;0.67
56513;SPS30;62152;52.078;8.414;2023-02-01T09:00:19;1.60;1.57;1.50;1.35;10.78;10.77;10.76;10.64;8.97;0.66
56513;SPS30;62152;52.078;8.414;2023-02-01T09:04:20;1.55;1.51;1.44;1.28;10.20;10.19;10.17;10.04;8.44;0.68
56513;SPS30;62152;52.078;8.414;2023-02-01T09:08:22;1.80;1.75;1.65;1.45;11.56;11.55;11.53;11.36;9.52;0.70
56513;SPS30;62152;52.078;8.414;2023-02-01T09:12:23;1.64;1.60;1.53;1.36;10.85;10.84;10.82;10.69;9.00;0.68
56513;SPS30;62152;52.078;8.414;2023-02-01T09:16:24;1.75;1.71;1.64;1.48;11.79;11.79;11.77;11.64;9.82;0.65
56513;SPS30;62152;52.078;8.414;2023-02-01T09:20:24;1.49;1.46;1.40;1.25;10.01;10.00;9.99;9.87;8.32;0.65
56513;SPS30;62152;52.078;8.414;2023-02-01T09:24:27;1.54;1.50;1.44;1.28;10.23;10.22;10.20;10.08;8.49;0.65
56513;SPS30;62152;52.078;8.414;2023-02-01T09:28:28;1.51;1.48;1.41;1.26;10.05;10.05;10.03;9.91;8.34;0.65
56513;SPS30;62152;52.078;8.414;2023-02-01T09:32:29;1.68;1.64;1.57;1.40;11.16;11.16;11.14;11.01;9.27;0.65
56513;SPS30;62152;52.078;8.414;2023-02-01T09:36:30;1.50;1.47;1.42;1.28;10.19;10.19;10.17;10.07;8.50;0.65
56513;SPS30;62152;52.078;8.414;2023-02-01T09:40:34;1.65;1.61;1.55;1.40;11.16;11.15;11.14;11.02;9.30;0.64
56513;SPS30;62152;52.078;8.414;2023-02-01T09:44:48;1.40;1.38;1.34;1.21;9.70;9.69;9.68;9.59;8.11;0.62
56513;SPS30;62152;52.078;8.414;2023-02-01T09:49:11;1.44;1.42;1.39;1.28;10.23;10.23;10.22;10.15;8.60;0.60
56513;SPS30;62152;52.078;8.414;2023-02-01T09:53:21;1.47;1.45;1.41;1.29;10.28;10.28;10.26;10.18;8.61;0.62
56513;SPS30;62152;52.078;8.414;2023-02-01T09:57:35;1.45;1.44;1.41;1.30;10.38;10.37;10.37;10.29;8.73;0.60
56513;SPS30;62152;52.078;8.414;2023-02-01T10:01:49;1.43;1.42;1.40;1.30;10.39;10.39;10.38;10.32;8.77;0.59
56513;SPS30;62152;52.078;8.414;2023-02-01T10:06:00;1.37;1.36;1.34;1.24;9.92;9.92;9.92;9.86;8.37;0.60
56513;SPS30;62152;52.078;8.414;2023-02-01T10:10:30;1.39;1.38;1.35;1.24;9.95;9.94;9.93;9.86;8.37;0.61
56513;SPS30;62152;52.078;8.414;2023-02-01T10:14:46;1.35;1.33;1.30;1.20;9.55;9.55;9.54;9.46;8.02;0.60
56513;SPS30;62152;52.078;8.414;2023-02-01T10:19:04;1.39;1.37;1.34;1.22;9.78;9.77;9.76;9.69;8.21;0.60
56513;SPS30;62152;52.078;8.414;2023-02-01T10:23:28;1.45;1.43;1.39;1.27;10.12;10.12;10.11;10.02;8.48;0.61
56513;SPS30;62152;52.078;8.414;2023-02-01T10:27:56;1.30;1.28;1.23;1.12;8.91;8.91;8.90;8.81;7.44;0.63
56513;SPS30;62152;52.078;8.414;2023-02-01T10:32:03;1.48;1.44;1.38;1.22;9.79;9.79;9.77;9.65;8.12;0.66
56513;SPS30;62152;52.078;8.414;2023-02-01T10:36:19;1.65;1.61;1.53;1.36;10.89;10.89;10.87;10.74;9.03;0.67
56513;SPS30;62152;52.078;8.414;2023-02-01T10:40:28;1.30;1.28;1.23;1.10;8.78;8.78;8.77;8.67;7.31;0.66
56513;SPS30;62152;52.078;8.414;2023-02-01T10:44:30;1.47;1.45;1.39;1.26;10.03;10.03;10.02;9.91;8.37;0.66
56513;SPS30;62152;52.078;8.414;2023-02-01T10:48:43;1.27;1.25;1.22;1.11;8.83;8.83;8.82;8.74;7.39;0.63
56513;SPS30;62152;52.078;8.414;2023-02-01T10:52:46;1.33;1.31;1.28;1.18;9.40;9.40;9.39;9.31;7.90;0.63
56513;SPS30;62152;52.078;8.414;2023-02-01T10:56:57;1.25;1.24;1.21;1.11;8.84;8.84;8.83;8.76;7.42;0.62
56513;SPS30;62152;52.078;8.414;2023-02-01T11:00:59;1.33;1.32;1.28;1.17;9.37;9.36;9.35;9.28;7.86;0.61
56513;SPS30;62152;52.078;8.414;2023-02-01T11:05:05;1.25;1.23;1.19;1.08;8.66;8.65;8.64;8.57;7.25;0.62
56513;SPS30;62152;52.078;8.414;2023-02-01T11:09:11;1.42;1.40;1.34;1.20;9.62;9.62;9.60;9.50;8.01;0.63
56513;SPS30;62152;52.078;8.414;2023-02-01T11:13:20;1.41;1.38;1.31;1.17;9.32;9.32;9.30;9.18;7.72;0.63
56513;SPS30;62152;52.078;8.414;2023-02-01T11:17:33;1.45;1.42;1.37;1.23;9.84;9.84;9.83;9.72;8.21;0.62
56513;SPS30;62152;52.078;8.414;2023-02-01T11:21:37;1.34;1.32;1.28;1.16;9.27;9.26;9.25;9.17;7.75;0.62
56513;SPS30;62152;52.078;8.414;2023-02-01T11:25:38;1.31;1.29;1.25;1.13;9.04;9.04;9.03;8.94;7.56;0.62
56513;SPS30;62152;52.078;8.414;2023-02-01T11:29:40;1.25;1.23;1.20;1.09;8.69;8.69;8.67;8.60;7.27;0.61
56513;SPS30;62152;52.078;8.414;2023-02-01T11:33:48;1.49;1.46;1.42;1.29;10.29;10.29;10.28;10.18;8.61;0.61
56513;SPS30;62152;52.078;8.414;2023-02-01T11:37:54;1.29;1.27;1.24;1.14;9.07;9.07;9.06;8.99;7.61;0.62
56513;SPS30;62152;52.078;8.414;2023-02-01T11:42:00;1.41;1.39;1.34;1.22;9.75;9.74;9.73;9.64;8.15;0.64
56513;SPS30;62152;52.078;8.414;2023-02-01T11:46:16;1.37;1.34;1.30;1.17;9.36;9.36;9.34;9.25;7.82;0.64
56513;SPS30;62152;52.078;8.414;2023-02-01T11:50:22;1.24;1.22;1.20;1.10;8.80;8.80;8.79;8.73;7.40;0.62
56513;SPS30;62152;52.078;8.414;2023-02-01T11:54:44;1.24;1.23;1.20;1.10;8.75;8.75;8.74;8.67;7.35;0.61
56513;SPS30;62152;52.078;8.414;2023-02-01T11:59:13;1.13;1.12;1.09;1.00;8.02;8.02;8.01;7.96;6.75;0.61
56513;SPS30;62152;52.078;8.414;2023-02-01T12:08:19;1.27;1.27;1.26;1.17;9.38;9.38;9.37;9.32;7.94;0.59
56513;SPS30;62152;52.078;8.414;2023-02-01T12:12:42;1.14;1.13;1.12;1.04;8.33;8.32;8.32;8.27;7.04;0.60
56513;SPS30;62152;52.078;8.414;2023-02-01T12:17:06;1.34;1.33;1.31;1.21;9.66;9.66;9.65;9.59;8.14;0.61
56513;SPS30;62152;52.078;8.414;2023-02-01T12:21:45;1.22;1.21;1.20;1.13;9.00;9.00;8.99;8.95;7.62;0.59
56513;SPS30;62152;52.078;8.414;2023-02-01T12:40:13;1.41;1.39;1.37;1.27;10.15;10.15;10.14;10.08;8.56;0.60
56513;SPS30;62152;52.078;8.414;2023-02-01T12:44:38;1.24;1.24;1.22;1.14;9.07;9.07;9.06;9.01;7.67;0.59
56513;SPS30;62152;52.078;8.414;2023-02-01T12:48:53;1.24;1.23;1.21;1.12;8.91;8.91;8.90;8.84;7.51;0.59
56513;SPS30;62152;52.078;8.414;2023-02-01T12:53:06;1.30;1.29;1.28;1.19;9.50;9.50;9.49;9.44;8.03;0.59
56513;SPS30;62152;52.078;8.414;2023-02-01T12:57:18;1.22;1.21;1.18;1.09;8.68;8.68;8.67;8.61;7.30;0.59
56513;SPS30;62152;52.078;8.414;2023-02-01T13:01:28;1.18;1.17;1.15;1.07;8.52;8.51;8.51;8.45;7.18;0.57
56513;SPS30;62152;52.078;8.414;2023-02-01T13:05:44;1.21;1.20;1.19;1.11;8.83;8.83;8.82;8.77;7.46;0.57
56513;SPS30;62152;52.078;8.414;2023-02-01T13:09:57;1.14;1.13;1.12;1.05;8.42;8.42;8.41;8.38;7.13;0.57
56513;SPS30;62152;52.078;8.414;2023-02-01T13:14:07;1.09;1.08;1.08;1.02;8.18;8.18;8.17;8.15;6.95;0.57
56513;SPS30;62152;52.078;8.414;2023-02-01T13:18:26;1.25;1.25;1.24;1.16;9.24;9.23;9.23;9.18;7.82;0.58
56513;SPS30;62152;52.078;8.414;2023-02-01T13:22:38;1.16;1.15;1.14;1.06;8.45;8.45;8.44;8.40;7.14;0.59
56513;SPS30;62152;52.078;8.414;2023-02-01T13:26:45;1.18;1.17;1.16;1.07;8.55;8.55;8.54;8.49;7.21;0.60
56513;SPS30;62152;52.078;8.414;2023-02-01T13:30:54;1.13;1.12;1.11;1.03;8.22;8.22;8.22;8.17;6.94;0.60
56513;SPS30;62152;52.078;8.414;2023-02-01T13:40:25;1.12;1.12;1.12;1.05;8.37;8.37;8.37;8.33;7.10;0.59
56513;SPS30;62152;52.078;8.414;2023-02-01T13:44:41;1.13;1.13;1.12;1.05;8.40;8.40;8.40;8.36;7.13;0.60
56513;SPS30;62152;52.078;8.414;2023-02-01T13:48:49;1.19;1.19;1.18;1.11;8.87;8.86;8.86;8.82;7.52;0.59
56513;SPS30;62152;52.078;8.414;2023-02-01T13:52:55;1.14;1.13;1.13;1.07;8.51;8.51;8.50;8.47;7.22;0.58
56513;SPS30;62152;52.078;8.414;2023-02-01T13:57:02;1.05;1.05;1.04;0.98;7.85;7.85;7.85;7.82;6.67;0.58
56513;SPS30;62152;52.078;8.414;2023-02-01T14:01:31;1.20;1.20;1.20;1.12;8.98;8.97;8.97;8.93;7.61;0.58
56513;SPS30;62152;52.078;8.414;2023-02-01T14:14:51;1.15;1.15;1.15;1.09;8.66;8.66;8.66;8.63;7.36;0.58
56513;SPS30;62152;52.078;8.414;2023-02-01T14:19:30;1.20;1.20;1.20;1.13;9.04;9.03;9.03;9.00;7.68;0.56
56513;SPS30;62152;52.078;8.414;2023-02-01T14:23:37;1.20;1.20;1.20;1.13;9.06;9.06;9.05;9.02;7.70;0.57
56513;SPS30;62152;52.078;8.414;2023-02-01T14:27:43;1.35;1.35;1.34;1.26;10.04;10.04;10.03;9.99;8.51;0.60
56513;SPS30;62152;52.078;8.414;2023-02-01T14:31:50;1.19;1.19;1.18;1.11;8.85;8.85;8.84;8.81;7.50;0.60
56513;SPS30;62152;52.078;8.414;2023-02-01T14:36:04;1.23;1.23;1.22;1.15;9.15;9.15;9.15;9.10;7.75;0.60
56513;SPS30;62152;52.078;8.414;2023-02-01T14:40:15;1.20;1.20;1.19;1.12;8.91;8.90;8.90;8.86;7.55;0.59
56513;SPS30;62152;52.078;8.414;2023-02-01T14:44:27;1.07;1.07;1.06;0.99;7.94;7.94;7.93;7.90;6.73;0.59
56513;SPS30;62152;52.078;8.414;2023-02-01T14:48:41;1.17;1.17;1.16;1.09;8.68;8.68;8.68;8.64;7.36;0.60
56513;SPS30;62152;52.078;8.414;2023-02-01T14:52:47;1.24;1.23;1.22;1.14;9.11;9.11;9.10;9.06;7.71;0.59
56513;SPS30;62152;52.078;8.414;2023-02-01T14:57:13;1.25;1.25;1.23;1.15;9.17;9.17;9.16;9.11;7.75;0.58
56513;SPS30;62152;52.078;8.414;2023-02-01T15:01:20;1.16;1.15;1.14;1.07;8.53;8.53;8.52;8.48;7.21;0.58
56513;SPS30;62152;52.078;8.414;2023-02-01T15:05:28;1.24;1.23;1.22;1.15;9.16;9.16;9.15;9.11;7.76;0.58
56513;SPS30;62152;52.078;8.414;2023-02-01T15:09:32;1.24;1.24;1.23;1.15;9.17;9.16;9.16;9.12;7.76;0.59
56513;SPS30;62152;52.078;8.414;2023-02-01T15:13:38;1.14;1.14;1.12;1.04;8.33;8.33;8.32;8.27;7.03;0.61
56513;SPS30;62152;52.078;8.414;2023-02-01T15:17:39;1.10;1.09;1.08;1.00;7.96;7.96;7.95;7.90;6.71;0.60
56513;SPS30;62152;52.078;8.414;2023-02-01T15:21:43;1.21;1.20;1.19;1.12;8.93;8.93;8.92;8.88;7.56;0.57
56513;SPS30;62152;52.078;8.414;2023-02-01T15:25:47;1.05;1.05;1.05;0.99;7.89;7.89;7.89;7.86;6.71;0.55
56513;SPS30;62152;52.078;8.414;2023-02-01T15:29:48;1.18;1.18;1.18;1.11;8.87;8.87;8.87;8.84;7.54;0.55
56513;SPS30;62152;52.078;8.414;2023-02-01T15:33:55;1.15;1.15;1.15;1.08;8.65;8.65;8.65;8.62;7.36;0.56
56513;SPS30;62152;52.078;8.414;2023-02-01T15:42:29;1.12;1.12;1.11;1.05;8.40;8.40;8.39;8.36;7.13;0.58
56513;SPS30;62152;52.078;8.414;2023-02-01T15:46:30;1.16;1.16;1.16;1.10;8.78;8.78;8.77;8.74;7.46;0.57
56513;SPS30;62152;52.078;8.414;2023-02-01T15:50:36;1.01;1.01;1.01;0.95;7.58;7.58;7.57;7.55;6.44;0.58
56513;SPS30;62152;52.078;8.414;2023-02-01T15:54:43;1.13;1.12;1.12;1.05;8.42;8.42;8.41;8.38;7.14;0.59
56513;SPS30;62152;52.078;8.414;2023-02-01T15:58:52;1.06;1.06;1.06;1.00;7.96;7.96;7.95;7.92;6.76;0.58
56513;SPS30;62152;52.078;8.414;2023-02-01T16:02:58;1.13;1.13;1.13;1.06;8.50;8.50;8.50;8.47;7.23;0.57
56513;SPS30;62152;52.078;8.414;2023-02-01T16:07:02;1.35;1.35;1.35;1.27;10.17;10.17;10.17;10.13;8.64;0.58
56513;SPS30;62152;52.078;8.414;2023-02-01T16:11:26;1.21;1.21;1.21;1.14;9.08;9.08;9.07;9.04;7.70;0.59
56513;SPS30;62152;52.078;8.414;2023-02-01T16:15:28;1.15;1.15;1.14;1.07;8.54;8.54;8.54;8.50;7.24;0.59
56513;SPS30;62152;52.078;8.414;2023-02-01T16:19:29;1.25;1.25;1.24;1.16;9.30;9.30;9.30;9.25;7.88;0.59
56513;SPS30;62152;52.078;8.414;2023-02-01T16:23:30;1.28;1.28;1.27;1.19;9.54;9.54;9.53;9.49;8.09;0.58
56513;SPS30;62152;52.078;8.414;2023-02-01T16:27:32;1.28;1.28;1.27;1.20;9.58;9.57;9.57;9.53;8.13;0.57
56513;SPS30;62152;52.078;8.414;2023-02-01T16:31:34;1.29;1.29;1.29;1.22;9.74;9.73;9.73;9.70;8.28;0.55
56513;SPS30;62152;52.078;8.414;2023-02-01T16:35:39;1.17;1.17;1.17;1.10;8.81;8.81;8.81;8.78;7.49;0.56
56513;SPS30;62152;52.078;8.414;2023-02-01T16:39:39;1.16;1.16;1.16;1.10;8.78;8.78;8.78;8.75;7.47;0.56
56513;SPS30;62152;52.078;8.414;2023-02-01T16:43:42;1.11;1.11;1.11;1.04;8.34;8.34;8.34;8.31;7.08;0.57
56513;SPS30;62152;52.078;8.414;2023-02-01T16:47:45;1.28;1.28;1.28;1.20;9.62;9.61;9.61;9.57;8.16;0.58
56513;SPS30;62152;52.078;8.414;2023-02-01T16:51:51;1.16;1.15;1.14;1.07;8.52;8.52;8.52;8.47;7.21;0.61
56513;SPS30;62152;52.078;8.414;2023-02-01T16:55:59;1.22;1.21;1.20;1.12;8.96;8.96;8.96;8.91;7.59;0.59
56513;SPS30;62152;52.078;8.414;2023-02-01T17:00:01;1.18;1.17;1.16;1.09;8.70;8.70;8.70;8.65;7.37;0.58
56513;SPS30;62152;52.078;8.414;2023-02-01T17:04:03;1.26;1.26;1.25;1.18;9.39;9.39;9.38;9.34;7.96;0.57
56513;SPS30;62152;52.078;8.414;2023-02-01T17:08:05;1.14;1.13;1.12;1.04;8.32;8.31;8.31;8.26;7.02;0.59